EGPE/INV METAR and TAF weather

Enter ICAO airport designator
Station Type Date Time Source
EGPE METAR 2024/04/18 06:20 UTC NOAA

EGPE 180620Z 22009KT 9999 -RA FEW008 SCT032 BKN045 05/03 Q1016


Station Type Date Time Source
EGPE Decoded METAR 2024/04/18 06:20 UTC NOAA

Inverness / Dalcross, United Kingdom (EGPE) 57-32N 004-03W 0M
Apr 18, 2024 - 02:20 AM EDT / 2024.04.18 0620 UTC
Wind: from the SW (220 degrees) at 10 MPH (9 KT):0
Visibility: greater than 7 mile(s):0
Sky conditions: mostly cloudy
Weather: light rain
Temperature: 41 F (5 C)
Dew Point: 37 F (3 C)
Relative Humidity: 86%
Pressure (altimeter): 30.00 in. Hg (1016 hPa)
ob: EGPE 180620Z 22009KT 9999 -RA FEW008 SCT032 BKN045 05/03 Q1016
cycle: 6

Station Type Date Time Source
EGPE TAF UTC NOAA

Error!

Example: see airport list